Time,TemperatureF,DewpointF,PressureIn,WindDirection,WindDirectionDegrees,WindSpeedMPH,WindSpeedGustMPH,Humidity,HourlyPrecipIn,Conditions,Clouds,dailyrainin,SoftwareType,DateUTC
2013-05-12 00:15:00,59.4,58.8,30.06,West,270,4.3,-999.0,98,-99.99,,,0.00,Acu-Link.com,2013-05-12 04:15:00,
2013-05-12 00:30:00,59.4,58.8,30.04,SSE,157,1.6,-999.0,98,-99.99,,,0.00,Acu-Link.com,2013-05-12 04:30:00,
2013-05-12 00:45:00,59.4,58.8,30.04,SE,135,0.0,-999.0,98,-99.99,,,0.00,Acu-Link.com,2013-05-12 04:45:00,
2013-05-12 01:00:00,59.4,58.8,30.04,SSW,202,0.0,-999.0,98,-99.99,,,0.00,Acu-Link.com,2013-05-12 05:00:00,
2013-05-12 01:15:00,59.4,58.8,30.04,SW,225,0.0,-999.0,98,-99.99,,,0.00,Acu-Link.com,2013-05-12 05:15:00,
2013-05-12 01:31:00,59.4,58.8,30.03,WSW,247,1.6,-999.0,98,-99.99,,,0.00,Acu-Link.com,2013-05-12 05:31:00,
2013-05-12 01:46:00,59.4,58.8,30.03,WSW,247,4.3,-999.0,98,-99.99,,,0.00,Acu-Link.com,2013-05-12 05:46:00,
2013-05-12 02:01:00,59.4,58.8,30.04,NE,45,0.0,-999.0,98,-99.99,,,0.00,Acu-Link.com,2013-05-12 06:01:00,
2013-05-12 02:16:00,59.2,58.6,30.03,SW,225,1.1,-999.0,98,-99.99,,,0.00,Acu-Link.com,2013-05-12 06:16:00,
2013-05-12 02:31:00,58.8,58.3,30.02,East,90,0.0,-999.0,98,-99.99,,,0.00,Acu-Link.com,2013-05-12 06:31:00,
2013-05-12 02:47:00,58.5,57.9,30.02,East,90,0.0,-999.0,98,-99.99,,,0.00,Acu-Link.com,2013-05-12 06:47:00,
2013-05-12 03:02:00,58.1,57.5,30.02,WNW,292,0.0,-999.0,98,-99.99,,,0.00,Acu-Link.com,2013-05-12 07:02:00,
2013-05-12 03:17:00,57.7,57.2,30.01,South,180,0.0,-999.0,98,-99.99,,,0.00,Acu-Link.com,2013-05-12 07:17:00,
2013-05-12 03:32:00,57.4,56.8,30.00,WNW,292,0.0,-999.0,98,-99.99,,,0.00,Acu-Link.com,2013-05-12 07:32:00,
2013-05-12 03:48:00,57.0,56.5,30.01,East,90,0.0,-999.0,98,-99.99,,,0.00,Acu-Link.com,2013-05-12 07:48:00,
2013-05-12 04:03:00,57.0,56.5,30.01,WNW,292,2.2,-999.0,98,-99.99,,,0.00,Acu-Link.com,2013-05-12 08:03:00,
2013-05-12 04:18:00,57.4,56.8,30.02,West,270,1.1,-999.0,98,-99.99,,,0.00,Acu-Link.com,2013-05-12 08:18:00,
2013-05-12 04:34:00,57.6,57.0,30.02,NW,315,0.0,-999.0,98,-99.99,,,0.00,Acu-Link.com,2013-05-12 08:34:00,
2013-05-12 04:49:00,56.5,55.9,30.01,West,270,2.7,-999.0,98,-99.99,,,0.00,Acu-Link.com,2013-05-12 08:49:00,
2013-05-12 05:04:00,55.8,55.2,30.01,South,180,0.0,-999.0,98,-99.99,,,0.00,Acu-Link.com,2013-05-12 09:04:00,
2013-05-12 05:19:00,55.6,55.0,30.02,SSW,202,0.0,-999.0,98,-99.99,,,0.00,Acu-Link.com,2013-05-12 09:19:00,
2013-05-12 05:34:00,55.2,54.7,30.03,ENE,67,0.0,-999.0,98,-99.99,,,0.00,Acu-Link.com,2013-05-12 09:34:00,
2013-05-12 05:49:00,55.0,54.5,30.03,East,90,0.0,-999.0,98,-99.99,,,0.00,Acu-Link.com,2013-05-12 09:49:00,
2013-05-12 06:04:00,54.9,54.3,30.02,South,180,0.0,-999.0,98,-99.99,,,0.00,Acu-Link.com,2013-05-12 10:04:00,
2013-05-12 06:20:00,54.9,54.3,30.03,NW,315,1.1,-999.0,98,-99.99,,,0.00,Acu-Link.com,2013-05-12 10:20:00,
2013-05-12 06:35:00,55.0,53.9,30.03,SE,135,0.0,-999.0,96,-99.99,,,0.00,Acu-Link.com,2013-05-12 10:35:00,
2013-05-12 06:50:00,54.7,52.7,30.03,SSW,202,0.0,-999.0,93,-99.99,,,0.00,Acu-Link.com,2013-05-12 10:50:00,
2013-05-12 07:05:00,54.1,53.6,30.03,SSW,202,0.0,-999.0,98,-99.99,,,0.02,Acu-Link.com,2013-05-12 11:05:00,
2013-05-12 07:20:00,53.8,53.2,30.04,WSW,247,0.0,-999.0,98,-99.99,,,0.05,Acu-Link.com,2013-05-12 11:20:00,
2013-05-12 07:36:00,54.3,52.9,30.03,SSW,202,0.0,-999.0,95,-99.99,,,0.05,Acu-Link.com,2013-05-12 11:36:00,
2013-05-12 07:51:00,54.1,50.4,30.04,West,270,3.1,-999.0,87,-99.99,,,0.05,Acu-Link.com,2013-05-12 11:51:00,
2013-05-12 08:06:00,53.8,41.5,30.03,ESE,112,1.1,-999.0,63,-99.99,,,0.05,Acu-Link.com,2013-05-12 12:06:00,
2013-05-12 08:21:00,54.0,47.6,30.02,SSW,202,0.0,-999.0,79,-99.99,,,0.05,Acu-Link.com,2013-05-12 12:21:00,
2013-05-12 08:37:00,54.5,39.6,30.02,SW,225,1.6,-999.0,57,-99.99,,,0.05,Acu-Link.com,2013-05-12 12:37:00,
2013-05-12 08:52:00,56.7,-23.3,30.02,WNW,292,3.1,-999.0,3,-99.99,,,0.05,Acu-Link.com,2013-05-12 12:52:00,
2013-05-12 09:07:00,56.8,56.6,30.02,SE,135,0.0,-999.0,99,-99.99,,,0.05,Acu-Link.com,2013-05-12 13:07:00,
2013-05-12 09:22:00,57.9,57.6,30.03,NW,315,2.7,-999.0,99,-99.99,,,0.05,Acu-Link.com,2013-05-12 13:22:00,
2013-05-12 09:37:00,57.4,57.1,30.02,WSW,247,1.1,-999.0,99,-99.99,,,0.05,Acu-Link.com,2013-05-12 13:37:00,
2013-05-12 09:53:00,58.6,58.4,30.02,West,270,3.8,-999.0,99,-99.99,,,0.05,Acu-Link.com,2013-05-12 13:53:00,
2013-05-12 10:08:00,60.4,60.2,30.02,West,270,3.8,-999.0,99,-99.99,,,0.05,Acu-Link.com,2013-05-12 14:08:00,
2013-05-12 10:23:00,60.6,60.3,30.01,ESE,112,3.8,-999.0,99,-99.99,,,0.05,Acu-Link.com,2013-05-12 14:23:00,
2013-05-12 10:38:00,61.2,60.9,30.01,ESE,112,2.7,-999.0,99,-99.99,,,0.05,Acu-Link.com,2013-05-12 14:38:00,
2013-05-12 10:53:00,61.9,61.6,30.01,NE,45,2.2,-999.0,99,-99.99,,,0.05,Acu-Link.com,2013-05-12 14:53:00,
2013-05-12 11:09:00,64.6,64.3,30.01,West,270,2.2,-999.0,99,-99.99,,,0.05,Acu-Link.com,2013-05-12 15:09:00,
2013-05-12 11:24:00,67.6,67.3,30.01,ESE,112,3.1,-999.0,99,-99.99,,,0.05,Acu-Link.com,2013-05-12 15:24:00,
2013-05-12 11:39:00,64.6,64.3,30.01,West,270,9.4,-999.0,99,-99.99,,,0.05,Acu-Link.com,2013-05-12 15:39:00,
2013-05-12 11:54:00,65.1,64.8,30.00,West,270,6.7,-999.0,99,-99.99,,,0.05,Acu-Link.com,2013-05-12 15:54:00,
2013-05-12 12:09:00,64.4,64.1,30.00,WSW,247,5.1,-999.0,99,-99.99,,,0.05,Acu-Link.com,2013-05-12 16:09:00,
2013-05-12 12:25:00,65.8,65.6,30.00,South,180,2.2,-999.0,99,-99.99,,,0.05,Acu-Link.com,2013-05-12 16:25:00,
2013-05-12 12:40:00,66.7,16.0,30.00,WSW,247,7.4,-999.0,14,-99.99,,,0.05,Acu-Link.com,2013-05-12 16:40:00,
2013-05-12 12:55:00,68.2,-9.8,30.00,WSW,247,6.7,-999.0,4,-99.99,,,0.05,Acu-Link.com,2013-05-12 16:55:00,
2013-05-12 13:10:00,65.1,-25.3,30.00,South,180,2.2,-999.0,2,-99.99,,,0.05,Acu-Link.com,2013-05-12 17:10:00,
2013-05-12 13:26:00,67.5,1.2,30.00,WSW,247,4.3,-999.0,7,-99.99,,,0.05,Acu-Link.com,2013-05-12 17:26:00,
2013-05-12 13:41:00,67.8,67.5,29.99,WNW,292,6.3,-999.0,99,-99.99,,,0.05,Acu-Link.com,2013-05-12 17:41:00,
2013-05-12 13:56:00,66.7,66.4,29.98,SSW,202,4.3,-999.0,99,-99.99,,,0.05,Acu-Link.com,2013-05-12 17:56:00,
2013-05-12 14:11:00,66.4,66.1,29.98,WNW,292,6.7,-999.0,99,-99.99,,,0.05,Acu-Link.com,2013-05-12 18:11:00,
2013-05-12 14:26:00,65.1,28.4,29.99,West,270,7.8,-999.0,25,-99.99,,,0.05,Acu-Link.com,2013-05-12 18:26:00,
2013-05-12 14:42:00,58.8,58.5,30.01,NW,315,15.0,-999.0,99,-99.99,,,0.05,Acu-Link.com,2013-05-12 18:42:00,
2013-05-12 14:57:00,60.6,60.3,30.02,West,270,11.0,-999.0,99,-99.99,,,0.05,Acu-Link.com,2013-05-12 18:57:00,
2013-05-12 15:12:00,61.9,61.6,30.02,NW,315,6.3,-999.0,99,-99.99,,,0.05,Acu-Link.com,2013-05-12 19:12:00,
2013-05-12 15:27:00,62.8,62.5,30.01,WSW,247,9.4,-999.0,99,-99.99,,,0.05,Acu-Link.com,2013-05-12 19:27:00,
2013-05-12 15:42:00,61.9,61.6,30.01,West,270,7.4,-999.0,99,-99.99,,,0.05,Acu-Link.com,2013-05-12 19:42:00,
2013-05-12 15:58:00,63.7,-26.2,30.01,NW,315,10.3,-999.0,2,-99.99,,,0.05,Acu-Link.com,2013-05-12 19:58:00,
2013-05-12 16:13:00,63.9,12.1,30.01,NW,315,6.3,-999.0,13,-99.99,,,0.05,Acu-Link.com,2013-05-12 20:13:00,
2013-05-12 16:28:00,63.9,12.1,30.02,NW,315,6.3,-999.0,13,-99.99,,,0.05,Acu-Link.com,2013-05-12 20:28:00,
2013-05-12 16:43:00,63.1,25.8,30.02,NW,315,8.9,-999.0,24,-99.99,,,0.05,Acu-Link.com,2013-05-12 20:43:00,
2013-05-12 16:58:00,64.6,64.3,30.03,SW,225,4.3,-999.0,99,-99.99,,,0.05,Acu-Link.com,2013-05-12 20:58:00,
2013-05-12 17:14:00,63.9,63.6,30.03,West,270,6.7,-999.0,99,-99.99,,,0.05,Acu-Link.com,2013-05-12 21:14:00,
2013-05-12 17:29:00,63.5,63.2,30.03,West,270,8.9,-999.0,99,-99.99,,,0.05,Acu-Link.com,2013-05-12 21:29:00,
2013-05-12 17:44:00,64.0,63.8,30.04,WSW,247,5.8,-999.0,99,-99.99,,,0.05,Acu-Link.com,2013-05-12 21:44:00,
2013-05-12 17:59:00,64.8,64.5,30.04,WSW,247,11.4,-999.0,99,-99.99,,,0.05,Acu-Link.com,2013-05-12 21:59:00,
2013-05-12 18:15:00,64.8,64.5,30.05,WSW,247,11.4,-999.0,99,-99.99,,,0.05,Acu-Link.com,2013-05-12 22:15:00,
2013-05-12 18:30:00,64.8,64.5,30.06,WSW,247,11.4,-999.0,99,-99.99,,,0.05,Acu-Link.com,2013-05-12 22:30:00,
2013-05-12 18:45:00,64.8,64.5,30.07,WSW,247,11.4,-999.0,99,-99.99,,,0.05,Acu-Link.com,2013-05-12 22:45:00,
2013-05-12 19:00:00,64.8,64.5,30.08,WSW,247,11.4,-999.0,99,-99.99,,,0.05,Acu-Link.com,2013-05-12 23:00:00,
2013-05-12 19:15:00,64.8,64.5,30.09,WSW,247,11.4,-999.0,99,-99.99,,,0.05,Acu-Link.com,2013-05-12 23:15:00,
2013-05-12 19:31:00,64.8,64.5,30.10,WSW,247,11.4,-999.0,99,-99.99,,,0.05,Acu-Link.com,2013-05-12 23:31:00,
2013-05-12 19:46:00,64.8,64.5,30.10,WSW,247,11.4,-999.0,99,-99.99,,,0.05,Acu-Link.com,2013-05-12 23:46:00,
2013-05-12 20:01:00,64.8,64.5,30.11,WSW,247,11.4,-999.0,99,-99.99,,,0.05,Acu-Link.com,2013-05-13 00:01:00,
2013-05-12 20:16:00,64.8,64.5,30.12,WSW,247,11.4,-999.0,99,-99.99,,,0.05,Acu-Link.com,2013-05-13 00:16:00,
2013-05-12 20:31:00,52.2,51.9,30.13,WSW,247,1.1,-999.0,99,-99.99,,,0.05,Acu-Link.com,2013-05-13 00:31:00,
2013-05-12 20:47:00,52.2,51.9,30.13,WSW,247,1.1,-999.0,99,-99.99,,,0.05,Acu-Link.com,2013-05-13 00:47:00,
2013-05-12 21:02:00,52.2,51.9,30.14,WSW,247,1.1,-999.0,99,-99.99,,,0.05,Acu-Link.com,2013-05-13 01:02:00,
2013-05-12 21:17:00,52.2,51.9,30.16,WSW,247,1.1,-999.0,99,-99.99,,,0.05,Acu-Link.com,2013-05-13 01:17:00,
2013-05-12 21:32:00,52.2,51.9,30.17,WSW,247,1.1,-999.0,99,-99.99,,,0.05,Acu-Link.com,2013-05-13 01:32:00,
2013-05-12 21:47:00,52.2,51.9,30.18,WSW,247,1.1,-999.0,99,-99.99,,,0.05,Acu-Link.com,2013-05-13 01:47:00,
2013-05-12 22:03:00,52.2,51.9,30.18,WSW,247,1.1,-999.0,99,-99.99,,,0.05,Acu-Link.com,2013-05-13 02:03:00,
2013-05-12 22:18:00,52.2,51.9,30.20,WSW,247,1.1,-999.0,99,-99.99,,,0.05,Acu-Link.com,2013-05-13 02:18:00,
2013-05-12 22:33:00,52.2,51.9,30.20,WSW,247,1.1,-999.0,99,-99.99,,,0.05,Acu-Link.com,2013-05-13 02:33:00,
2013-05-12 22:48:00,52.2,51.9,30.21,WSW,247,1.1,-999.0,99,-99.99,,,0.05,Acu-Link.com,2013-05-13 02:48:00,
2013-05-12 23:03:00,52.2,51.9,30.21,WSW,247,1.1,-999.0,99,-99.99,,,0.05,Acu-Link.com,2013-05-13 03:03:00,
2013-05-12 23:19:00,52.2,51.9,30.22,WSW,247,1.1,-999.0,99,-99.99,,,0.05,Acu-Link.com,2013-05-13 03:19:00,
2013-05-12 23:34:00,52.2,51.9,30.22,WSW,247,1.1,-999.0,99,-99.99,,,0.05,Acu-Link.com,2013-05-13 03:34:00,
2013-05-12 23:49:00,52.2,51.9,30.23,WSW,247,1.1,-999.0,99,-99.99,,,0.05,Acu-Link.com,2013-05-13 03:49:00,